createdAt,value
2022-08-25T00:02:09.819Z,5.30
2022-08-25T00:04:37.543Z,5.07
2022-08-25T00:07:06.698Z,5.40
2022-08-25T00:09:35.341Z,5.40
2022-08-25T00:12:04.100Z,5.25
2022-08-25T00:14:35.271Z,5.32
2022-08-25T00:17:03.925Z,4.47
2022-08-25T00:19:35.677Z,6.20
2022-08-25T00:22:03.908Z,4.80
2022-08-25T00:24:31.151Z,5.68
2022-08-25T00:27:01.825Z,5.50
2022-08-25T00:29:32.963Z,4.95
2022-08-25T00:32:01.218Z,5.60
2022-08-25T00:34:34.468Z,5.15
2022-08-25T00:37:04.022Z,4.95
2022-08-25T00:39:31.292Z,5.75
2022-08-25T00:41:59.744Z,5.30
2022-08-25T00:44:32.258Z,4.65
2022-08-25T00:47:01.742Z,5.32
2022-08-25T00:49:32.210Z,5.30
2022-08-25T00:52:15.292Z,5.97
2022-08-25T00:54:53.120Z,5.38
2022-08-25T00:57:34.186Z,5.15
2022-08-25T01:00:08.203Z,5.15
2022-08-25T01:02:35.409Z,5.35
2022-08-25T01:05:03.046Z,5.28
2022-08-25T01:07:30.947Z,5.15
2022-08-25T01:09:58.039Z,5.13
2022-08-25T01:12:25.347Z,5.60
2022-08-25T01:14:53.896Z,5.32
2022-08-25T01:17:22.262Z,5.28
2022-08-25T01:19:49.278Z,5.60
2022-08-25T01:22:16.897Z,5.55
2022-08-25T01:24:54.918Z,5.43
2022-08-25T01:27:22.180Z,5.55
2022-08-25T01:29:49.354Z,6.00
2022-08-25T01:32:16.423Z,5.80
2022-08-25T01:34:45.562Z,5.68
2022-08-25T01:37:14.416Z,5.63
2022-08-25T01:39:42.934Z,5.18
2022-08-25T01:42:19.266Z,5.88
2022-08-25T01:44:48.042Z,5.72
2022-08-25T01:47:16.163Z,5.80
2022-08-25T01:49:46.618Z,5.67
2022-08-25T01:52:32.821Z,5.15
2022-08-25T01:55:00.142Z,6.50
2022-08-25T01:57:30.351Z,5.85
2022-08-25T01:59:58.831Z,5.32
2022-08-25T02:02:26.346Z,5.65
2022-08-25T02:04:53.962Z,4.93
2022-08-25T02:07:22.212Z,5.70
2022-08-25T02:09:49.648Z,5.95
2022-08-25T02:12:16.811Z,5.55
2022-08-25T02:15:07.792Z,5.78
2022-08-25T02:17:36.914Z,6.40
2022-08-25T02:20:09.185Z,5.28
2022-08-25T02:22:36.338Z,6.28
2022-08-25T02:25:04.318Z,7.03
2022-08-25T02:27:31.462Z,6.72
2022-08-25T02:29:58.526Z,5.50
2022-08-25T02:32:25.742Z,6.53
2022-08-25T02:34:53.251Z,5.78
2022-08-25T02:37:20.782Z,6.22
2022-08-25T02:39:47.977Z,6.45
2022-08-25T02:42:15.721Z,6.53
2022-08-25T02:44:42.951Z,5.95
2022-08-25T02:47:10.167Z,5.90
2022-08-25T02:49:37.295Z,6.03
2022-08-25T02:52:05.448Z,5.65
2022-08-25T02:54:32.570Z,6.32
2022-08-25T02:57:00.010Z,6.50
2022-08-25T02:59:27.541Z,6.25
2022-08-25T03:01:54.603Z,6.50
2022-08-25T03:04:21.897Z,6.43
2022-08-25T03:06:49.251Z,6.13
2022-08-25T03:09:17.137Z,7.07
2022-08-25T03:11:44.167Z,5.55
2022-08-25T03:14:11.551Z,5.68
2022-08-25T03:16:38.743Z,5.85
2022-08-25T03:19:06.144Z,6.60
2022-08-25T03:21:33.252Z,6.47
2022-08-25T03:24:00.914Z,6.10
2022-08-25T03:26:46.563Z,5.82
2022-08-25T03:29:14.444Z,5.60
2022-08-25T03:31:45.020Z,5.72
2022-08-25T03:34:13.909Z,6.30
2022-08-25T03:36:41.777Z,5.55
2022-08-25T03:39:09.870Z,7.88
2022-08-25T03:41:37.226Z,9.07
2022-08-25T03:44:06.404Z,6.55
2022-08-25T03:46:37.634Z,6.93
2022-08-25T03:49:08.099Z,6.32
2022-08-25T03:51:50.016Z,6.13
2022-08-25T03:54:21.183Z,5.95
2022-08-25T03:56:48.201Z,6.10
2022-08-25T03:59:15.544Z,6.70
2022-08-25T04:01:45.223Z,7.10
2022-08-25T04:04:15.095Z,5.88
2022-08-25T04:06:44.273Z,6.00
2022-08-25T04:09:11.771Z,6.00
2022-08-25T04:11:39.665Z,6.03
2022-08-25T04:14:09.849Z,5.70
2022-08-25T04:16:44.498Z,7.25
2022-08-25T04:19:12.255Z,6.65
2022-08-25T04:21:40.880Z,6.10
2022-08-25T04:24:10.389Z,5.07
2022-08-25T04:26:44.514Z,5.88
2022-08-25T04:29:13.923Z,5.60
2022-08-25T04:31:43.403Z,5.25
2022-08-25T04:34:14.766Z,5.35
2022-08-25T04:37:03.242Z,5.93
2022-08-25T04:39:30.695Z,5.80
2022-08-25T04:41:58.091Z,4.95
2022-08-25T04:44:25.690Z,5.82
2022-08-25T04:46:53.197Z,4.80
2022-08-25T04:49:20.370Z,5.45
2022-08-25T04:51:48.047Z,5.22
2022-08-25T04:54:22.410Z,5.55
2022-08-25T04:56:54.651Z,5.47
2022-08-25T04:59:29.542Z,5.05
2022-08-25T05:02:05.474Z,6.07
2022-08-25T05:04:38.012Z,6.03
2022-08-25T05:07:05.882Z,6.00
2022-08-25T05:09:33.647Z,5.72
2022-08-25T05:12:05.962Z,6.65
2022-08-25T05:14:34.480Z,5.82
2022-08-25T05:17:02.289Z,6.15
2022-08-25T05:19:30.376Z,5.90
2022-08-25T05:21:58.100Z,5.78
2022-08-25T05:24:26.353Z,5.78
2022-08-25T05:26:53.702Z,5.72
2022-08-25T05:29:21.030Z,5.38
2022-08-25T05:31:50.580Z,5.50
2022-08-25T05:34:19.753Z,6.23
2022-08-25T05:36:48.278Z,6.07
2022-08-25T05:39:15.777Z,5.90
2022-08-25T05:41:47.309Z,6.03
2022-08-25T05:44:18.003Z,4.88
2022-08-25T05:46:49.925Z,5.75
2022-08-25T05:49:29.067Z,5.38
2022-08-25T05:51:56.852Z,5.60
2022-08-25T05:54:24.716Z,5.63
2022-08-25T05:56:51.764Z,5.50
2022-08-25T05:59:18.918Z,5.32
2022-08-25T06:02:04.487Z,5.57
2022-08-25T06:04:32.673Z,5.13
2022-08-25T06:07:00.176Z,5.88
2022-08-25T06:09:27.995Z,5.45
2022-08-25T06:11:55.516Z,5.63
2022-08-25T06:14:24.161Z,5.28
2022-08-25T06:16:51.993Z,5.78
2022-08-25T06:19:19.740Z,5.72
2022-08-25T06:21:46.991Z,5.85
2022-08-25T06:24:15.681Z,5.60
2022-08-25T06:26:44.511Z,6.18
2022-08-25T06:29:14.245Z,5.10
2022-08-25T06:31:42.723Z,5.18
2022-08-25T06:34:11.593Z,5.95
2022-08-25T06:36:39.094Z,5.13
2022-08-25T06:39:06.880Z,5.22
2022-08-25T06:41:37.146Z,5.28
2022-08-25T06:44:05.771Z,5.63
2022-08-25T06:46:36.361Z,6.20
2022-08-25T06:49:06.443Z,6.80
2022-08-25T06:51:35.788Z,5.95
2022-08-25T06:54:03.663Z,6.57
2022-08-25T06:56:30.899Z,6.40
2022-08-25T06:58:58.390Z,6.38
2022-08-25T07:01:27.432Z,6.10
2022-08-25T07:03:57.708Z,5.88
2022-08-25T07:06:27.775Z,6.15
2022-08-25T07:08:55.275Z,5.60
2022-08-25T07:11:22.560Z,5.60
2022-08-25T07:13:50.632Z,6.30
2022-08-25T07:16:20.621Z,5.88
2022-08-25T07:18:48.937Z,5.72
2022-08-25T07:21:17.479Z,5.57
2022-08-25T07:23:48.112Z,6.25
2022-08-25T07:26:37.646Z,5.93
2022-08-25T07:29:31.986Z,5.32
2022-08-25T07:32:04.323Z,5.32
2022-08-25T07:34:51.962Z,6.83
2022-08-25T07:37:45.470Z,6.13
2022-08-25T07:40:14.377Z,5.72
2022-08-25T07:42:42.955Z,6.57
2022-08-25T07:45:11.726Z,6.07
2022-08-25T07:47:39.109Z,6.57
2022-08-25T07:50:08.877Z,6.25
2022-08-25T07:52:36.602Z,6.20
2022-08-25T07:55:08.407Z,5.95
2022-08-25T07:57:43.181Z,6.50
2022-08-25T08:00:11.523Z,6.18
2022-08-25T08:02:40.165Z,5.68
2022-08-25T08:05:09.725Z,5.93
2022-08-25T08:07:43.583Z,5.70
2022-08-25T08:13:02.361Z,6.10
2022-08-25T08:15:30.274Z,5.47
2022-08-25T08:17:59.174Z,5.30
2022-08-25T08:20:27.365Z,5.60
2022-08-25T08:22:55.786Z,6.03
2022-08-25T08:25:26.646Z,5.53
2022-08-25T08:27:55.977Z,6.80
2022-08-25T08:30:26.304Z,6.25
2022-08-25T08:33:11.663Z,5.38
2022-08-25T08:35:43.511Z,5.78
2022-08-25T08:38:17.199Z,5.60
2022-08-25T08:41:23.337Z,6.82
2022-08-25T08:43:56.717Z,5.82
2022-08-25T08:46:27.266Z,6.80
2022-08-25T08:48:57.333Z,6.80
2022-08-25T08:51:39.423Z,6.78
2022-08-25T08:54:20.678Z,6.07
2022-08-25T08:57:03.444Z,6.35
2022-08-25T08:59:41.953Z,5.88
2022-08-25T09:02:16.807Z,6.25
2022-08-25T09:05:17.001Z,6.22
2022-08-25T09:07:54.602Z,5.63
2022-08-25T09:10:24.860Z,6.15
2022-08-25T09:13:19.215Z,5.18
2022-08-25T09:16:31.742Z,4.47
2022-08-25T09:19:32.032Z,5.10
2022-08-25T09:22:34.938Z,5.57
2022-08-25T09:25:29.560Z,5.18
2022-08-25T09:28:26.185Z,4.80
2022-08-25T09:31:04.039Z,5.10
2022-08-25T09:33:35.714Z,5.68
2022-08-25T09:36:06.311Z,5.28
2022-08-25T09:38:36.810Z,4.70
2022-08-25T09:41:04.719Z,4.55
2022-08-25T09:43:40.442Z,4.30
2022-08-25T09:46:18.095Z,5.25
2022-08-25T09:48:56.937Z,4.75
2022-08-25T09:51:30.215Z,4.68
2022-08-25T09:54:18.260Z,5.63
2022-08-25T09:57:01.142Z,5.53
2022-08-25T09:59:37.348Z,4.75
2022-08-25T10:02:22.219Z,4.40
2022-08-25T10:04:49.822Z,5.13
2022-08-25T10:07:28.416Z,4.80
2022-08-25T10:10:01.883Z,5.00
2022-08-25T10:12:42.831Z,6.07
2022-08-25T10:15:30.145Z,4.70
2022-08-25T10:18:22.183Z,4.82
2022-08-25T10:21:03.213Z,5.15
2022-08-25T10:23:32.675Z,5.20
2022-08-25T10:26:06.695Z,4.95
2022-08-25T10:28:58.221Z,5.43
2022-08-25T10:31:37.125Z,5.25
2022-08-25T10:34:32.413Z,5.40
2022-08-25T10:37:27.526Z,4.97
2022-08-25T10:40:25.070Z,5.60
2022-08-25T10:43:16.495Z,5.75
2022-08-25T10:45:53.962Z,5.40
2022-08-25T10:48:34.142Z,5.60
2022-08-25T10:51:28.593Z,5.25
2022-08-25T10:54:20.463Z,5.80
2022-08-25T10:57:08.116Z,5.15
2022-08-25T10:59:57.790Z,5.05
2022-08-25T11:02:43.926Z,5.60
2022-08-25T11:05:30.577Z,5.50
2022-08-25T11:08:11.499Z,5.50
2022-08-25T11:10:47.944Z,5.43
2022-08-25T11:14:11.144Z,5.68
2022-08-25T11:16:48.772Z,5.45
2022-08-25T11:19:33.715Z,5.10
2022-08-25T11:22:20.426Z,5.85
2022-08-25T11:25:04.001Z,5.60
2022-08-25T11:27:41.924Z,5.38
2022-08-25T11:30:16.676Z,5.38
2022-08-25T11:32:49.495Z,6.05
2022-08-25T11:35:19.863Z,5.60
2022-08-25T11:38:19.480Z,6.03
2022-08-25T11:40:55.848Z,5.43
2022-08-25T11:43:41.162Z,5.40
2022-08-25T11:46:40.763Z,5.57
2022-08-25T11:49:58.338Z,6.03
2022-08-25T11:52:35.143Z,5.75
2022-08-25T11:55:22.747Z,5.70
2022-08-25T11:58:11.912Z,5.50
2022-08-25T12:00:43.836Z,5.63
2022-08-25T12:03:31.913Z,5.90
2022-08-25T12:06:23.578Z,6.13
2022-08-25T12:09:18.478Z,5.80
2022-08-25T12:11:54.727Z,6.13
2022-08-25T12:14:22.413Z,6.28
2022-08-25T12:16:56.954Z,5.70
2022-08-25T12:19:49.732Z,5.65
2022-08-25T12:22:37.263Z,5.60
2022-08-25T12:25:28.994Z,7.00
2022-08-25T12:28:35.039Z,5.65
2022-08-25T12:31:12.655Z,5.80
2022-08-25T12:33:48.967Z,6.40
2022-08-25T12:36:33.561Z,5.85
2022-08-25T12:39:28.589Z,6.10
2022-08-25T12:44:50.064Z,6.85
2022-08-25T12:47:23.438Z,6.40
2022-08-25T12:49:51.206Z,6.85
2022-08-25T12:52:25.174Z,6.43
2022-08-25T12:55:03.629Z,6.78
2022-08-25T12:57:40.629Z,5.75
2022-08-25T13:06:25.286Z,6.95
2022-08-25T13:08:58.434Z,6.20
2022-08-25T13:11:35.399Z,6.07
2022-08-25T13:14:14.899Z,5.97
2022-08-25T13:16:58.931Z,6.63
2022-08-25T13:19:28.091Z,6.78
2022-08-25T13:22:15.499Z,6.60
2022-08-25T13:24:47.314Z,6.27
2022-08-25T13:27:27.136Z,6.13
2022-08-25T13:29:58.338Z,5.78
2022-08-25T13:32:32.459Z,7.47
2022-08-25T13:35:26.583Z,5.97
2022-08-25T13:38:13.215Z,6.32
2022-08-25T13:40:41.034Z,6.40
2022-08-25T13:43:14.996Z,5.90
2022-08-25T13:45:50.553Z,6.70
2022-08-25T13:48:49.611Z,6.07
2022-08-25T13:51:23.177Z,5.90
2022-08-25T13:53:54.350Z,6.35
2022-08-25T13:56:39.952Z,5.95
2022-08-25T13:59:30.329Z,6.20
2022-08-25T14:01:57.855Z,6.32
2022-08-25T14:04:32.461Z,6.63
2022-08-25T14:07:19.642Z,6.53
2022-08-25T14:09:49.164Z,5.57
2022-08-25T14:12:57.520Z,7.10
2022-08-25T14:15:32.214Z,6.43
2022-08-25T14:18:02.435Z,6.63
2022-08-25T14:20:31.750Z,8.23
2022-08-25T14:23:02.680Z,6.50
2022-08-25T14:25:31.480Z,5.93
2022-08-25T14:28:10.618Z,6.40
2022-08-25T14:30:43.628Z,6.32
2022-08-25T14:33:15.196Z,6.40
2022-08-25T14:35:47.472Z,6.70
2022-08-25T14:38:15.855Z,6.72
2022-08-25T14:40:44.835Z,6.25
2022-08-25T14:43:12.669Z,6.40
2022-08-25T14:45:43.067Z,6.63
2022-08-25T14:48:22.256Z,6.53
2022-08-25T14:50:49.414Z,9.40
2022-08-25T14:53:17.942Z,6.97
2022-08-25T14:55:45.148Z,6.45
2022-08-25T14:58:12.194Z,7.07
2022-08-25T15:00:44.506Z,6.82
2022-08-25T15:03:34.311Z,8.60
2022-08-25T15:06:03.107Z,6.68
2022-08-25T15:08:50.521Z,7.32
2022-08-25T15:11:17.752Z,6.45
2022-08-25T15:13:49.403Z,6.80
2022-08-25T15:16:35.339Z,8.90
2022-08-25T15:19:06.964Z,6.45
2022-08-25T15:21:36.339Z,8.00
2022-08-25T15:24:05.695Z,7.05
2022-08-25T15:26:40.186Z,8.23
2022-08-25T15:29:07.423Z,6.82
2022-08-25T15:31:36.125Z,8.85
2022-08-25T15:34:03.525Z,7.50
2022-08-25T15:36:34.782Z,9.32
2022-08-25T15:39:03.346Z,8.23
2022-08-25T15:41:31.395Z,8.05
2022-08-25T15:44:00.617Z,8.55
2022-08-25T15:46:30.466Z,7.88
2022-08-25T15:48:59.705Z,8.80
2022-08-25T15:51:28.520Z,9.93
2022-08-25T15:53:56.523Z,9.90
2022-08-25T15:56:26.513Z,11.15
2022-08-25T15:59:05.458Z,9.70
2022-08-25T16:01:36.288Z,10.10
2022-08-25T16:04:04.013Z,11.13
2022-08-25T16:06:32.399Z,13.98
2022-08-25T16:09:00.722Z,14.88
2022-08-25T16:11:32.365Z,12.32
2022-08-25T16:13:59.625Z,10.75
2022-08-25T16:16:29.044Z,10.00
2022-08-25T16:18:56.796Z,9.40
2022-08-25T16:21:30.494Z,8.43
2022-08-25T16:24:01.198Z,9.90
2022-08-25T16:26:30.459Z,10.65
2022-08-25T16:28:57.588Z,9.95
2022-08-25T16:31:26.109Z,9.38
2022-08-25T16:33:57.644Z,9.55
2022-08-25T16:36:27.213Z,8.68
2022-08-25T16:38:58.091Z,8.88
2022-08-25T16:41:34.135Z,9.00
2022-08-25T16:44:07.964Z,8.57
2022-08-25T16:46:40.830Z,9.60
2022-08-25T16:49:09.887Z,10.40
2022-08-25T16:51:39.136Z,9.40
2022-08-25T16:54:27.962Z,8.82
2022-08-25T16:56:57.473Z,10.27
2022-08-25T16:59:24.979Z,10.75
2022-08-25T17:01:53.133Z,9.57
2022-08-25T17:04:21.659Z,8.93
2022-08-25T17:07:00.299Z,10.88
2022-08-25T17:09:30.228Z,9.40
2022-08-25T17:11:57.890Z,9.35
2022-08-25T17:14:24.984Z,9.45
2022-08-25T17:16:58.154Z,8.65
2022-08-25T17:19:26.009Z,9.18
2022-08-25T17:21:54.840Z,10.38
2022-08-25T17:24:29.537Z,9.82
2022-08-25T17:27:01.308Z,8.40
2022-08-25T17:29:28.820Z,9.00
2022-08-25T17:31:56.041Z,10.80
2022-08-25T17:34:23.942Z,10.20
2022-08-25T17:36:53.302Z,14.63
2022-08-25T17:39:22.547Z,10.27
2022-08-25T17:41:50.020Z,9.98
2022-08-25T17:44:18.107Z,10.32
2022-08-25T17:46:47.396Z,8.88
2022-08-25T17:49:18.789Z,11.02
2022-08-25T17:51:45.856Z,49.28
2022-08-25T17:54:16.122Z,22.80
2022-08-25T17:56:43.349Z,27.92
2022-08-25T17:59:12.072Z,12.60
2022-08-25T18:01:40.221Z,11.27
2022-08-25T18:04:16.898Z,10.70
2022-08-25T18:06:47.692Z,10.55
2022-08-25T18:09:15.738Z,13.82
2022-08-25T18:11:42.929Z,20.10
2022-08-25T18:14:11.502Z,21.33
2022-08-25T18:16:39.057Z,16.70
2022-08-25T18:19:10.963Z,16.75
2022-08-25T18:21:38.961Z,11.20
2022-08-25T18:24:07.409Z,13.52
2022-08-25T18:26:38.212Z,14.75
2022-08-25T18:29:05.719Z,12.55
2022-08-25T18:31:33.175Z,13.60
2022-08-25T18:34:05.126Z,15.88
2022-08-25T18:36:45.530Z,15.20
2022-08-25T18:39:34.786Z,14.52
2022-08-25T18:42:05.297Z,14.70
2022-08-25T18:44:32.911Z,13.73
2022-08-25T18:47:00.232Z,13.30
2022-08-25T18:49:35.167Z,13.60
2022-08-25T18:52:02.231Z,13.90
2022-08-25T18:54:30.329Z,13.20
2022-08-25T18:57:00.657Z,13.70
2022-08-25T18:59:28.319Z,12.63
2022-08-25T19:01:57.358Z,13.23
2022-08-25T19:04:28.553Z,13.07
2022-08-25T19:07:00.095Z,13.15
2022-08-25T19:09:27.365Z,11.75
2022-08-25T19:11:55.826Z,12.00
2022-08-25T19:14:23.446Z,11.15
2022-08-25T19:16:54.556Z,10.73
2022-08-25T19:19:23.115Z,11.15
2022-08-25T19:21:50.961Z,10.80
2022-08-25T19:24:19.405Z,11.32
2022-08-25T19:26:49.603Z,11.27
2022-08-25T19:29:19.925Z,10.80
2022-08-25T19:31:48.675Z,9.80
2022-08-25T19:34:21.702Z,14.40
2022-08-25T19:36:48.856Z,15.50
2022-08-25T19:39:16.506Z,18.63
2022-08-25T19:41:45.469Z,14.65
2022-08-25T19:44:13.095Z,15.40
2022-08-25T19:46:43.782Z,10.82
2022-08-25T19:49:21.096Z,11.18
2022-08-25T19:51:51.574Z,15.82
2022-08-25T19:54:23.813Z,13.60
2022-08-25T19:59:40.845Z,11.38
2022-08-25T20:02:16.139Z,12.55
2022-08-25T20:04:50.263Z,12.88
2022-08-25T20:07:21.315Z,11.80
2022-08-25T20:09:50.200Z,12.05
2022-08-25T20:12:18.341Z,11.23
2022-08-25T20:14:47.197Z,12.43
2022-08-25T20:17:23.483Z,11.52
2022-08-25T20:19:57.463Z,10.95
2022-08-25T20:22:28.521Z,12.30
2022-08-25T20:25:12.946Z,11.73
2022-08-25T20:27:45.009Z,10.85
2022-08-25T20:30:24.097Z,11.90
2022-08-25T20:32:53.138Z,10.93
2022-08-25T20:35:26.371Z,11.65
2022-08-25T20:37:56.266Z,11.13
2022-08-25T20:40:25.416Z,11.95
2022-08-25T20:42:54.024Z,11.25
2022-08-25T20:45:24.802Z,11.73
2022-08-25T20:47:52.056Z,12.15
2022-08-25T20:50:22.997Z,11.02
2022-08-25T20:52:51.642Z,9.05
2022-08-25T20:55:19.238Z,11.60
2022-08-25T20:57:47.053Z,11.27
2022-08-25T21:00:15.675Z,10.07
2022-08-25T21:02:46.346Z,10.75
2022-08-25T21:05:14.565Z,11.65
2022-08-25T21:07:42.184Z,11.82
2022-08-25T21:10:14.549Z,11.80
2022-08-25T21:12:43.298Z,10.70
2022-08-25T21:15:11.979Z,11.85
2022-08-25T21:17:39.822Z,10.88
2022-08-25T21:20:08.840Z,12.65
2022-08-25T21:22:38.128Z,12.57
2022-08-25T21:25:06.668Z,11.90
2022-08-25T21:27:34.150Z,12.63
2022-08-25T21:30:01.330Z,12.95
2022-08-25T21:32:31.109Z,10.48
2022-08-25T21:34:59.051Z,10.70
2022-08-25T21:37:26.867Z,10.27
2022-08-25T21:39:54.694Z,10.88
2022-08-25T21:42:24.100Z,10.48
2022-08-25T21:44:52.609Z,11.68
2022-08-25T21:47:21.554Z,10.98
2022-08-25T21:49:50.996Z,11.45
2022-08-25T21:52:19.637Z,12.10
2022-08-25T21:54:47.302Z,11.00
2022-08-25T21:57:15.030Z,11.18
2022-08-25T21:59:43.459Z,11.80
2022-08-25T22:02:21.874Z,11.43
2022-08-25T22:04:54.601Z,12.38
2022-08-25T22:09:52.993Z,11.63
2022-08-25T22:12:20.026Z,11.60
2022-08-25T22:14:47.815Z,11.93
2022-08-25T22:17:16.680Z,10.73
2022-08-25T22:19:45.626Z,11.30
2022-08-25T22:22:13.025Z,13.15
2022-08-25T22:24:40.220Z,13.80
2022-08-25T22:27:15.574Z,20.02
2022-08-25T22:29:44.697Z,13.68
2022-08-25T22:32:13.660Z,13.25
2022-08-25T22:34:41.420Z,12.93
2022-08-25T22:37:10.856Z,12.00
2022-08-25T22:39:38.538Z,13.10
2022-08-25T22:42:07.660Z,13.07
2022-08-25T22:44:37.348Z,12.50
2022-08-25T22:47:04.655Z,13.45
2022-08-25T22:49:32.169Z,13.98
2022-08-25T22:51:59.237Z,12.98
2022-08-25T22:54:26.604Z,12.85
2022-08-25T22:56:54.136Z,13.75
2022-08-25T22:59:22.126Z,12.50
2022-08-25T23:01:52.584Z,13.10
2022-08-25T23:04:22.263Z,12.90
2022-08-25T23:06:50.084Z,14.60
2022-08-25T23:09:17.395Z,13.52
2022-08-25T23:11:44.620Z,13.93
2022-08-25T23:14:12.898Z,13.57
2022-08-25T23:16:41.915Z,14.15
2022-08-25T23:19:14.365Z,13.73
2022-08-25T23:22:04.453Z,13.52
2022-08-25T23:24:31.854Z,14.25
2022-08-25T23:27:01.933Z,15.73
2022-08-25T23:29:29.607Z,14.32
2022-08-25T23:31:57.763Z,14.35
2022-08-25T23:34:26.091Z,15.02
2022-08-25T23:36:53.182Z,14.02
2022-08-25T23:39:21.818Z,14.75
2022-08-25T23:41:50.118Z,12.98
2022-08-25T23:44:18.789Z,14.43
2022-08-25T23:46:47.724Z,12.75
2022-08-25T23:49:18.409Z,13.82
2022-08-25T23:51:48.808Z,13.13
2022-08-25T23:54:19.001Z,11.77
2022-08-25T23:56:51.572Z,13.15
2022-08-25T23:59:24.489Z,13.35
